NCAR-RAP Real-Time Weather Data

Output produced by METARs form (17 October 2018  15:54 UTC)
found at http://weather.rap.ucar.edu/surface/
 
RJSK 171200Z VRB02KT 9999 FEW040 08/06 Q1016
RJSK 171100Z 06001KT 9999 FEW035 SCT040 09/05 Q1015
RJSK 171000Z 35004KT 9999 FEW035 SCT040 10/05 Q1015
RJSK 170900Z 33004KT 9999 FEW035 BKN040 11/06 Q1015
RJSK 170800Z 33005KT 9999 FEW035 SCT045 12/06 Q1014
RJSK 170700Z 32006KT 9999 FEW030 14/06 Q1014
RJSK 170600Z 32006KT 280V340 9999 FEW030 BKN040 14/05 Q1013
RJSK 170500Z 35007KT 310V030 9999 FEW030 BKN035 16/06 Q1012
RJSK 170400Z 32007KT 9999 FEW030 SCT040 15/06 Q1012
RJSK 170300Z 34008KT 9999 FEW030 SCT/// 15/07 Q1013
RJSK 170200Z 30004KT 260V010 9999 FEW015 BKN120 BKN150 13/08 Q1013
RJSK 170100Z VRB01KT 9999 FEW005 BKN100 BKN120 12/09 Q1013
RJSK 170017Z VRB02KT 9999 FEW002 SCT004 BKN100 12/10 Q1013 RMK 1ST002 4ST004 6AC100 A2992
RJSK 170000Z VRB02KT 9999 FEW001 SCT003 BKN004 11/10 Q1013
RJSK 162339Z VRB01KT 9999 FEW001 SCT002 BKN004 11/11 Q1013 RMK 2ST001 4ST002 6ST004 A2992
RJSK 162326Z VRB01KT 6000 PRFG SCT001 BKN002 BKN004 11/10 Q1013 RMK 3ST001 5ST002 7ST004 A2992 1600NE-SE
RJSK 162316Z VRB02KT 4000 R28/P1800N PRFG BR SCT001 BKN002 BKN004 11/10 Q1013 RMK 3ST001 5ST002 7ST004 A2992 1200NE-SE
RJSK 162306Z VRB02KT 1500 R28/P1800N BCFG BR SCT001 BKN002 11/10 Q1013 RMK 4ST001 7ST002 A2992
RJSK 162300Z VRB02KT 0800 R28/1200VP1800U FG SCT001 BKN002 11/10 Q1013
RJSK 162249Z 15004KT 110V180 0400 R28/0500V1600U FG BKN001 BKN002 10/10 Q1013 RMK 5ST001 7ST002 A2992
RJSK 162245Z 14003KT 0300 R28/0450V1000U FG BKN001 BKN002 10/10 Q1013 RMK 5ST001 7ST002 A2991
RJSK 162221Z 15003KT 110V190 0300 R28/0300V0550U FG BKN001 BKN002 10/09 Q1012 RMK 5ST001 7ST002 A2991
RJSK 162200Z VRB02KT 0200 R28/0300N FG BKN001 BKN002 10/09 Q1012
RJSK 162140Z VRB02KT 0200 R28/0150N FG BKN001 BKN002 10/09 Q1012 RMK 5ST001 7ST002 A2990
RJSK 161200Z VRB02KT 9999 FEW030 BKN090 12/11 Q1013
RJSK 161100Z 34003KT 9999 FEW030 BKN090 BKN/// 13/10 Q1013
RJSK 161000Z 35001KT 9999 FEW030 BKN080 12/10 Q1013
RJSK 160900Z 32004KT 9999 FEW030 14/10 Q1013
RJSK 160800Z 01003KT 9999 VCSH FEW030 BKN/// 14/11 Q1013
RJSK 160700Z 26006KT 220V280 9999 FEW030 FEW040TCU SCT070 17/11 Q1013
RJSK 160600Z 28005KT 9999 FEW030 BKN080 18/11 Q1013
RJSK 160500Z VRB01KT 9999 FEW030 SCT050 BKN100 18/11 Q1013
RJSK 160400Z VRB02KT 9999 FEW030 SCT080 BKN/// 17/10 Q1013
RJSK 160300Z VRB02KT 9999 FEW030 SCT080 BKN/// 16/12 Q1014
RJSK 160200Z 14005KT 110V180 9999 FEW030 SCT070 BKN/// 15/12 Q1015
RJSK 160100Z 15004KT 120V190 9999 FEW005 BKN050 BKN180 12/11 Q1015
RJSK 160000Z 13004KT 9999 R28/P1800N PRFG FEW001 SCT002 BKN050 11/10 Q1015
RJSK 152300Z 17003KT 110V230 8000 R28/P1800N -SHRA PRFG FEW001 SCT002 BKN050 09/08 Q1016
RJSK 152200Z 15003KT 130V190 9999 FEW001 SCT003 BKN050 08/07 Q1016
RJSK 152140Z 15004KT 8000 R28/P1800N PRFG FEW001 SCT003 BKN050 08/07 Q1016 RMK 1ST001 3ST003 6CU050 A3002 0900NE-SE
RJSK 151200Z 10003KT 9999 FEW050 11/08 Q1017
RJSK 151100Z VRB01KT 9999 FEW050 11/08 Q1017
RJSK 151000Z 09001KT 9999 FEW030 13/08 Q1017
RJSK 150900Z VRB02KT 9999 FEW030 BKN060 BKN070 15/08 Q1017
RJSK 150800Z 30003KT 9999 FEW035 SCT070 16/07 Q1017
RJSK 150700Z 28006KT 9999 FEW035 SCT/// 18/06 Q1017
RJSK 150600Z VRB02KT 9999 FEW035 BKN/// 18/06 Q1017
RJSK 150500Z VRB04KT 9999 FEW035 SCT170 BKN/// 18/08 Q1017
RJSK 150400Z 21004KT 130V260 9999 FEW035 SCT160 BKN/// 18/08 Q1018